Time;durP1;ratioP1;P1;durP2;ratioP2;P2;SDS_P1;SDS_P2;PMS_P1;PMS_P2;Temp;Humidity;BMP_temperature;BMP_pressure;BME280_temperature;BME280_humidity;BME280_pressure;Samples;Min_cycle;Max_cycle;Signal;HPM_P1;HPM_P2
2022/09/02 00:00:16;;;;;;;0.73;0.55;;;;;;;13.17;82.33;101609.16;2071444;28;20038;-71
2022/09/02 00:01:23;;;;;;;;;;;;;;;13.16;82.46;101613.75;2063106;28;20042;-71
2022/09/02 00:02:25;;;;;;;0.65;0.45;;;;;;;13.15;82.33;101606.75;2065591;28;19926;-71
2022/09/02 00:03:34;;;;;;;2.85;0.57;;;;;;;13.17;82.47;101615.38;2063075;28;20046;-71
2022/09/02 00:04:39;;;;;;;1.30;0.50;;;;;;;13.15;82.57;101612.16;2060340;28;20038;-71
2022/09/02 00:05:45;;;;;;;1.40;0.28;;;;;;;13.18;82.52;101617.00;2054974;28;20046;-71
2022/09/02 00:06:48;;;;;;;2.45;0.50;;;;;;;13.16;82.48;101612.94;2055953;28;20811;-71
2022/09/02 00:07:56;;;;;;;0.63;0.40;;;;;;;13.16;82.55;101612.94;2063647;28;20058;-71
2022/09/02 00:09:04;;;;;;;1.38;0.57;;;;;;;13.15;82.62;101624.84;2064573;28;20054;-72
2022/09/02 00:10:12;;;;;;;0.55;0.40;;;;;;;13.11;82.45;101616.44;2063180;28;20065;-71
2022/09/02 00:11:18;;;;;;;1.50;0.50;;;;;;;13.08;81.82;101618.88;2057175;28;20471;-71
2022/09/02 00:12:23;;;;;;;1.08;0.50;;;;;;;13.06;82.01;101629.97;2057993;28;20038;-71
2022/09/02 00:13:26;;;;;;;0.88;0.47;;;;;;;13.08;82.02;101627.81;2064648;28;20077;-72
2022/09/02 00:14:36;;;;;;;0.80;0.50;;;;;;;13.07;81.84;101628.88;2080632;28;20056;-71
2022/09/02 00:15:38;;;;;;;0.80;0.50;;;;;;;13.02;82.00;101625.34;2071190;28;20041;-72
2022/09/02 00:16:50;;;;;;;0.70;0.60;;;;;;;13.01;82.14;101627.25;2056516;28;20065;-71
2022/09/02 00:17:57;;;;;;;2.45;0.73;;;;;;;13.02;82.23;101623.50;2073180;28;20062;-71
2022/09/02 00:19:01;;;;;;;3.22;0.50;;;;;;;13.05;82.34;101631.06;2072798;28;20045;-71
2022/09/02 00:20:03;;;;;;;1.33;0.50;;;;;;;13.03;82.35;101627.00;2071069;28;20045;-71
2022/09/02 00:21:12;;;;;;;2.00;0.70;;;;;;;13.05;82.09;101620.25;2072519;28;20065;-73
2022/09/02 00:22:17;;;;;;;0.60;0.40;;;;;;;13.07;82.05;101625.38;2073785;28;20038;-72
2022/09/02 00:23:21;;;;;;;0.75;0.50;;;;;;;13.10;82.06;101620.22;2063883;28;20054;-72
2022/09/02 00:24:24;;;;;;;0.40;0.30;;;;;;;13.08;82.14;101627.81;2057649;28;20065;-72
2022/09/02 00:25:29;;;;;;;0.60;0.38;;;;;;;13.10;81.89;101620.22;2064263;28;20389;-72
2022/09/02 00:26:34;;;;;;;1.20;0.50;;;;;;;13.11;81.82;101624.53;2065519;28;20057;-72
2022/09/02 00:27:38;;;;;;;0.77;0.35;;;;;;;13.07;81.66;101614.56;2065018;28;20118;-72
2022/09/02 00:28:43;;;;;;;1.48;0.45;;;;;;;13.11;81.47;101624.53;2080672;28;20033;-72
2022/09/02 00:29:45;;;;;;;0.60;0.40;;;;;;;13.08;81.66;101617.00;2080436;28;20049;-72
2022/09/02 00:30:50;;;;;;;0.63;0.45;;;;;;;13.08;81.78;101626.97;2072442;28;20042;-71
2022/09/02 00:31:55;;;;;;;1.30;0.52;;;;;;;13.07;81.73;101631.56;2057070;28;20395;-71
2022/09/02 00:33:02;;;;;;;0.60;0.52;;;;;;;13.05;81.39;101632.91;2073075;28;20057;-71
2022/09/02 00:34:11;;;;;;;0.80;0.50;;;;;;;12.96;80.92;101638.06;2049612;28;20125;-71
2022/09/02 00:35:14;;;;;;;0.95;0.85;;;;;;;12.87;81.08;101642.34;2070693;28;20139;-71
2022/09/02 00:36:19;;;;;;;1.50;0.70;;;;;;;12.75;81.06;101640.69;2078957;28;20053;-72
2022/09/02 00:37:23;;;;;;;1.85;0.70;;;;;;;12.73;81.41;101640.16;2064474;28;20398;-71
2022/09/02 00:38:32;;;;;;;1.23;0.90;;;;;;;12.74;81.52;101643.69;2056726;28;20118;-71
2022/09/02 00:39:39;;;;;;;1.30;0.70;;;;;;;12.64;81.59;101639.06;2065486;28;20049;-72
2022/09/02 00:40:49;;;;;;;2.50;0.70;;;;;;;12.59;81.52;101652.53;2064048;28;20509;-72
2022/09/02 00:41:56;;;;;;;2.17;0.82;;;;;;;12.56;81.70;101644.16;2065830;28;20034;-72
2022/09/02 00:43:07;;;;;;;1.92;0.90;;;;;;;12.59;81.92;101651.72;2072834;28;20050;-71
2022/09/02 00:44:12;;;;;;;3.55;1.00;;;;;;;12.60;82.09;101639.84;2065259;28;20532;-72
2022/09/02 00:45:14;;;;;;;1.48;1.00;;;;;;;12.61;82.29;101645.00;2056379;28;20485;-72
2022/09/02 00:46:18;;;;;;;1.88;0.90;;;;;;;12.65;82.27;101645.28;2064653;28;20065;-72
2022/09/02 00:47:22;;;;;;;1.65;0.90;;;;;;;12.60;82.22;101643.34;2071975;28;20048;-71
2022/09/02 00:48:24;;;;;;;1.25;0.73;;;;;;;12.60;82.28;101651.44;2064646;28;20073;-72
2022/09/02 00:49:32;;;;;;;2.05;0.90;;;;;;;12.61;82.30;101647.69;2064070;28;20374;-72
2022/09/02 00:50:41;;;;;;;3.63;1.10;;;;;;;12.63;82.53;101647.41;2061379;28;20046;-72
2022/09/02 00:51:53;;;;;;;1.73;0.80;;;;;;;12.63;82.82;101648.22;2064995;28;20274;-71
2022/09/02 00:53:05;;;;;;;1.85;0.95;;;;;;;12.67;82.95;101649.34;2057412;28;20423;-72
2022/09/02 00:54:13;;;;;;;1.55;0.82;;;;;;;12.64;82.59;101649.88;2072278;28;20054;-70
2022/09/02 00:55:39;;;;;;;2.17;1.02;;;;;;;12.56;82.63;101647.66;2063672;28;20702;-71
2022/09/02 00:56:43;;;;;;;7.18;1.00;;;;;;;12.51;82.83;101648.47;2070777;28;20060;-71
2022/09/02 00:57:51;;;;;;;3.67;0.80;;;;;;;12.55;82.99;101647.91;2064717;28;20068;-71
2022/09/02 00:58:54;;;;;;;2.20;0.93;;;;;;;12.55;83.15;101645.22;2057031;28;20034;-71
2022/09/02 01:00:17;;;;;;;1.25;0.70;;;;;;;12.50;83.46;101644.13;2056593;28;20051;-71
2022/09/02 01:01:26;;;;;;;1.10;0.75;;;;;;;12.51;83.82;101639.53;2064004;28;20042;-71
2022/09/02 01:02:32;;;;;;;1.38;0.90;;;;;;;12.58;84.13;101648.22;2065258;28;20058;-71
2022/09/02 01:03:40;;;;;;;2.58;1.65;;;;;;;12.66;84.35;101639.59;2072413;28;20059;-71
2022/09/02 01:04:45;;;;;;;1.27;0.75;;;;;;;12.71;84.48;101639.63;2072408;28;20037;-70
2022/09/02 01:05:49;;;;;;;0.80;0.60;;;;;;;12.73;84.39;101636.63;2071011;28;20533;-71
2022/09/02 01:06:57;;;;;;;3.53;0.50;;;;;;;12.78;84.36;101638.56;2071104;28;20039;-71
2022/09/02 01:08:08;;;;;;;2.05;0.85;;;;;;;12.76;84.41;101642.31;2067153;28;20436;-71
2022/09/02 01:09:16;;;;;;;1.13;0.90;;;;;;;12.79;84.37;101632.88;2063284;28;20386;-71
2022/09/02 01:10:22;;;;;;;;;;;;;;;12.81;84.29;101632.63;2066614;28;20034;-71
2022/09/02 01:11:31;;;;;;;2.08;1.00;;;;;;;12.82;84.35;101634.22;2072408;28;20439;-71
2022/09/02 01:12:34;;;;;;;1.77;0.77;;;;;;;12.84;84.40;101638.28;2072449;28;20045;-71
2022/09/02 01:13:42;;;;;;;0.77;0.60;;;;;;;12.86;84.52;101640.72;2064087;28;20034;-71
2022/09/02 01:14:50;;;;;;;0.73;0.60;;;;;;;12.89;84.46;101634.78;2064915;28;20458;-71
2022/09/02 01:16:03;;;;;;;1.90;0.73;;;;;;;12.93;84.53;101625.91;2056399;28;20050;-71
2022/09/02 01:17:11;;;;;;;3.05;0.50;;;;;;;12.98;84.30;101633.19;2059034;28;20034;-70
2022/09/02 01:18:19;;;;;;;1.10;0.73;;;;;;;12.97;84.45;101626.97;2056822;28;20426;-71
2022/09/02 01:19:36;;;;;;;1.65;0.80;;;;;;;13.01;84.60;101638.03;2072645;28;20049;-71
2022/09/02 01:20:45;;;;;;;0.68;0.60;;;;;;;13.04;84.50;101631.31;2068236;28;20049;-70
2022/09/02 01:21:52;;;;;;;1.85;0.73;;;;;;;13.05;84.46;101628.34;2067399;28;20101;-71
2022/09/02 01:22:57;;;;;;;0.93;0.63;;;;;;;13.05;84.58;101631.06;2063623;28;20046;-71
2022/09/02 01:23:58;;;;;;;2.08;0.70;;;;;;;13.07;84.49;101625.38;2048493;28;20406;-71
2022/09/02 01:25:11;;;;;;;1.77;0.50;;;;;;;13.08;84.62;101627.81;2065105;28;20038;-71
2022/09/02 01:26:17;;;;;;;2.38;0.63;;;;;;;13.09;84.50;101621.31;2071823;28;20050;-71
2022/09/02 01:27:26;;;;;;;1.42;0.60;;;;;;;13.08;84.63;101614.31;2055401;28;20065;-71
2022/09/02 01:28:32;;;;;;;2.03;0.60;;;;;;;13.08;84.67;101619.72;2044505;28;20058;-70
2022/09/02 01:29:49;;;;;;;1.52;0.70;;;;;;;13.09;84.75;101624.03;2073552;28;20065;-71
2022/09/02 01:30:53;;;;;;;1.42;0.85;;;;;;;13.08;85.23;101613.47;2078002;28;20811;-71
2022/09/02 01:31:58;;;;;;;1.25;0.60;;;;;;;13.06;85.20;101621.84;2072824;28;20045;-71
2022/09/02 01:33:02;;;;;;;3.47;0.70;;;;;;;13.06;85.08;101623.75;2072211;28;20060;-71
2022/09/02 01:34:10;;;;;;;0.85;0.60;;;;;;;13.07;85.28;101619.97;2063916;28;20117;-70
2022/09/02 01:35:18;;;;;;;1.00;0.70;;;;;;;13.06;85.36;101619.16;2066268;28;20057;-70
2022/09/02 01:36:23;;;;;;;1.92;0.90;;;;;;;13.06;85.39;101619.16;2078031;28;20516;-71
2022/09/02 01:37:31;;;;;;;2.80;0.80;;;;;;;13.07;85.40;101626.16;2072055;28;20066;-72
2022/09/02 01:38:35;;;;;;;3.47;0.88;;;;;;;13.01;85.55;101619.16;2061766;28;20042;-72
2022/09/02 01:39:39;;;;;;;1.83;0.80;;;;;;;13.01;85.50;101615.63;2047593;28;20051;-71
2022/09/02 01:40:48;;;;;;;0.93;0.73;;;;;;;13.03;85.49;101621.59;2056746;28;20051;-72
2022/09/02 01:41:54;;;;;;;0.93;0.70;;;;;;;12.99;85.54;101624.81;2064331;28;20054;-71
2022/09/02 01:43:06;;;;;;;0.85;0.60;;;;;;;12.99;85.65;101615.94;2070448;28;20473;-71
2022/09/02 01:44:17;;;;;;;1.85;0.75;;;;;;;13.02;85.59;101618.09;2057704;28;20054;-72
2022/09/02 01:45:24;;;;;;;1.02;0.70;;;;;;;13.05;85.82;101612.16;2049753;28;20059;-71
2022/09/02 01:46:32;;;;;;;2.05;0.82;;;;;;;13.04;85.82;101610.50;2059742;28;20062;-72
2022/09/02 01:47:36;;;;;;;3.08;1.17;;;;;;;13.04;85.88;101609.69;2079912;28;20037;-71
2022/09/02 01:48:42;;;;;;;2.80;0.90;;;;;;;13.05;85.93;101614.84;2071144;28;20073;-72
2022/09/02 01:49:45;;;;;;;1.15;0.70;;;;;;;13.04;86.05;101615.91;2064098;28;20057;-72
2022/09/02 01:50:58;;;;;;;1.65;1.00;;;;;;;13.03;86.14;101617.00;2062552;28;20030;-71
2022/09/02 01:52:04;;;;;;;1.95;0.90;;;;;;;13.03;85.99;101613.50;2062290;28;20050;-71
2022/09/02 01:53:11;;;;;;;1.70;0.80;;;;;;;12.99;86.11;101618.63;2058685;28;20043;-71
2022/09/02 01:54:14;;;;;;;1.73;0.90;;;;;;;12.97;86.24;101607.28;2052668;28;20031;-71
2022/09/02 01:55:23;;;;;;;4.30;1.00;;;;;;;12.95;86.05;101617.50;2047716;28;20055;-71
2022/09/02 01:56:25;;;;;;;1.05;0.80;;;;;;;12.94;86.09;101610.50;2049651;28;20573;-70
2022/09/02 01:57:31;;;;;;;2.05;0.80;;;;;;;12.95;86.02;101617.50;2064617;28;20050;-71
2022/09/02 01:58:35;;;;;;;1.40;0.82;;;;;;;12.95;86.19;101607.53;2055993;28;20097;-71
2022/09/02 01:59:42;;;;;;;2.55;0.80;;;;;;;12.96;85.99;101614.56;2048846;28;20046;-71
2022/09/02 02:00:46;;;;;;;2.95;0.77;;;;;;;12.97;85.68;101616.19;2056999;28;20039;-71
2022/09/02 02:01:54;;;;;;;1.40;0.80;;;;;;;13.01;85.69;101604.84;2056574;28;20043;-71
2022/09/02 02:02:58;;;;;;;1.10;0.80;;;;;;;12.98;85.52;101612.38;2071770;28;20052;-71
2022/09/02 02:04:02;;;;;;;1.60;0.80;;;;;;;12.97;85.34;101613.47;2064191;28;20053;-71
2022/09/02 02:05:09;;;;;;;1.60;0.80;;;;;;;12.92;85.46;101607.25;2063869;28;20513;-71
2022/09/02 02:06:20;;;;;;;2.15;0.80;;;;;;;12.92;85.21;101610.75;2051470;28;20630;-71
2022/09/02 02:07:23;;;;;;;0.90;0.60;;;;;;;12.94;84.97;101607.81;2072620;28;20053;-71
2022/09/02 02:08:26;;;;;;;1.40;0.70;;;;;;;12.93;84.85;101608.91;2069458;28;20056;-72
2022/09/02 02:09:34;;;;;;;2.22;0.80;;;;;;;12.97;84.61;101599.16;2056804;28;20845;-72
2022/09/02 02:10:40;;;;;;;0.75;0.50;;;;;;;12.97;84.30;101607.28;2055022;28;20384;-72
2022/09/02 02:11:43;;;;;;;2.35;0.80;;;;;;;12.96;84.59;101602.97;2064385;28;20509;-71
2022/09/02 02:12:46;;;;;;;1.08;0.57;;;;;;;12.93;84.59;101608.91;2079577;28;20033;-71
2022/09/02 02:13:55;;;;;;;;;;;;;;;12.94;84.58;101605.09;2078725;28;20490;-71
2022/09/02 02:15:02;;;;;;;0.85;0.50;;;;;;;12.93;84.43;101600.78;2080076;28;19913;-72
2022/09/02 02:16:07;;;;;;;0.90;0.60;;;;;;;12.97;84.44;101604.56;2080325;28;20051;-71
2022/09/02 02:17:15;;;;;;;0.85;0.55;;;;;;;12.96;84.33;101606.47;2080378;28;20033;-72
2022/09/02 02:18:23;;;;;;;1.30;0.60;;;;;;;12.95;84.25;101612.91;2063819;28;20069;-71
2022/09/02 02:19:27;;;;;;;1.73;0.70;;;;;;;12.94;84.37;101605.09;2057423;28;20042;-71
2022/09/02 02:20:30;;;;;;;0.50;0.50;;;;;;;12.93;84.38;101608.91;2063082;28;20046;-71
2022/09/02 02:21:32;;;;;;;1.17;0.50;;;;;;;12.95;84.69;101606.72;2071126;28;20412;-71
2022/09/02 02:22:34;;;;;;;1.33;0.60;;;;;;;12.95;84.34;101601.31;2071950;28;20105;-72
2022/09/02 02:23:36;;;;;;;2.58;0.70;;;;;;;12.94;84.31;101610.50;2063869;28;20552;-72
2022/09/02 02:24:39;;;;;;;0.90;0.55;;;;;;;12.93;84.38;101601.59;2056007;28;20520;-72
2022/09/02 02:25:50;;;;;;;1.35;0.60;;;;;;;12.92;84.23;101602.66;2051456;28;20050;-72
2022/09/02 02:26:55;;;;;;;0.73;0.50;;;;;;;12.90;84.43;101609.44;2071701;28;20053;-70
2022/09/02 02:28:03;;;;;;;0.60;0.50;;;;;;;12.90;84.30;101604.03;2068750;28;20426;-70
2022/09/02 02:29:09;;;;;;;0.68;0.50;;;;;;;12.89;84.49;101603.22;2069213;28;20058;-71
2022/09/02 02:30:14;;;;;;;1.65;0.60;;;;;;;12.87;84.17;101612.66;2055275;28;20500;-71
2022/09/02 02:31:20;;;;;;;0.80;0.60;;;;;;;12.87;84.04;101605.38;2057219;28;20065;-71
2022/09/02 02:32:24;;;;;;;1.65;0.50;;;;;;;12.86;83.98;101606.47;2072762;28;20057;-71
2022/09/02 02:33:28;;;;;;;0.70;0.50;;;;;;;12.81;83.61;101605.63;2072002;28;20343;-71
2022/09/02 02:34:34;;;;;;;0.50;0.50;;;;;;;12.80;83.31;101612.09;2056300;28;20505;-71
2022/09/02 02:35:36;;;;;;;0.60;0.52;;;;;;;12.75;83.48;101608.31;2063412;28;20057;-70
2022/09/02 02:36:41;;;;;;;0.43;0.40;;;;;;;12.78;83.08;101609.69;2071274;28;20049;-71
2022/09/02 02:37:48;;;;;;;1.08;0.57;;;;;;;12.76;82.83;101604.53;2057032;28;20132;-71
2022/09/02 02:38:54;;;;;;;0.93;0.55;;;;;;;12.77;83.02;101610.75;2065149;28;20050;-71
2022/09/02 02:39:58;;;;;;;0.63;0.50;;;;;;;12.78;82.72;101609.69;2072235;28;20054;-71
2022/09/02 02:41:11;;;;;;;1.98;0.75;;;;;;;12.76;82.72;101612.63;2068963;28;20513;-71
2022/09/02 02:42:16;;;;;;;2.60;0.60;;;;;;;12.74;82.58;101606.69;2073622;28;20612;-71
2022/09/02 02:43:20;;;;;;;1.98;0.65;;;;;;;12.74;82.44;101608.59;2063735;28;20046;-71
2022/09/02 02:44:23;;;;;;;1.23;0.50;;;;;;;12.74;82.18;101608.59;2064252;28;20058;-71
2022/09/02 02:45:29;;;;;;;1.58;0.57;;;;;;;12.74;82.32;101612.09;2072725;28;20061;-70
2022/09/02 02:46:35;;;;;;;1.70;0.60;;;;;;;12.72;82.10;101608.03;2054221;28;20428;-70
2022/09/02 02:47:42;;;;;;;1.67;0.60;;;;;;;12.70;82.17;101602.94;2064634;28;20644;-71
2022/09/02 02:48:47;;;;;;;0.70;0.50;;;;;;;12.68;82.26;101601.56;2071016;28;20075;-70
2022/09/02 02:49:52;;;;;;;1.92;0.50;;;;;;;12.67;82.07;101599.94;2072812;28;20045;-71
2022/09/02 02:50:59;;;;;;;0.63;0.50;;;;;;;12.69;82.19;101605.88;2069567;28;20057;-71
2022/09/02 02:52:03;;;;;;;2.03;0.43;;;;;;;12.70;82.01;101605.63;2070167;28;20532;-71
2022/09/02 02:53:05;;;;;;;0.95;0.55;;;;;;;12.69;82.15;101611.28;2063990;28;20370;-71
2022/09/02 02:54:13;;;;;;;0.93;0.60;;;;;;;12.64;82.03;101609.38;2056508;28;20059;-71
2022/09/02 02:55:16;;;;;;;1.05;0.60;;;;;;;12.61;82.24;101604.53;2064468;28;20112;-71
2022/09/02 02:56:24;;;;;;;1.63;0.63;;;;;;;12.60;82.39;101599.38;2063629;28;20042;-71
2022/09/02 02:57:35;;;;;;;0.88;0.60;;;;;;;12.59;82.17;101609.38;2057804;28;20046;-71
2022/09/02 02:58:41;;;;;;;1.10;0.50;;;;;;;12.58;82.25;101613.16;2064179;28;20038;-71
2022/09/02 02:59:44;;;;;;;1.42;0.68;;;;;;;12.57;82.01;101608.00;2064671;28;20034;-71
2022/09/02 03:00:48;;;;;;;1.65;0.98;;;;;;;12.57;82.03;101606.13;2063996;28;20516;-70
2022/09/02 03:01:53;;;;;;;1.50;0.50;;;;;;;12.55;82.03;101605.59;2057009;28;20930;-70
2022/09/02 03:02:59;;;;;;;0.88;0.50;;;;;;;12.52;81.46;101598.84;2063873;28;20049;-71
2022/09/02 03:04:07;;;;;;;1.02;0.65;;;;;;;12.49;81.30;101603.94;2074412;28;20058;-70
2022/09/02 03:05:11;;;;;;;1.20;0.70;;;;;;;12.48;81.08;101610.41;2079322;28;20046;-70
2022/09/02 03:06:16;;;;;;;0.55;0.50;;;;;;;12.44;81.01;101601.22;2070882;28;20082;-71
2022/09/02 03:07:21;;;;;;;1.58;0.60;;;;;;;12.48;80.86;101608.53;2063388;28;20046;-70
2022/09/02 03:08:25;;;;;;;2.05;0.80;;;;;;;12.48;80.73;101608.53;2053960;28;20050;-70
2022/09/02 03:09:30;;;;;;;1.05;0.60;;;;;;;12.48;80.67;101602.31;2064726;28;20050;-69
2022/09/02 03:10:39;;;;;;;3.72;0.73;;;;;;;12.46;80.64;101604.47;2077727;28;20545;-71
2022/09/02 03:11:46;;;;;;;1.08;0.60;;;;;;;12.42;80.63;101604.19;2055546;28;20046;-72
2022/09/02 03:12:52;;;;;;;2.40;0.63;;;;;;;12.40;80.49;101606.34;2056803;28;20042;-70
2022/09/02 03:14:00;;;;;;;1.80;0.70;;;;;;;12.41;80.64;101599.88;2064674;28;20062;-69
2022/09/02 03:15:07;;;;;;;1.75;0.52;;;;;;;12.42;80.83;101608.75;2063731;28;20038;-69
2022/09/02 03:16:18;;;;;;;0.88;0.65;;;;;;;12.40;80.82;101600.16;2056519;28;20801;-70
2022/09/02 03:17:33;;;;;;;2.28;0.55;;;;;;;12.41;80.53;101607.16;2049521;28;20043;-70
2022/09/02 03:18:41;;;;;;;3.22;0.60;;;;;;;12.40;80.30;101602.84;2055921;28;20065;-70
2022/09/02 03:19:51;;;;;;;1.00;0.50;;;;;;;12.39;80.14;101604.72;2057637;28;20055;-70
2022/09/02 03:20:54;;;;;;;0.82;0.57;;;;;;;12.36;80.20;101609.81;2063915;28;20042;-70
2022/09/02 03:21:59;;;;;;;2.25;0.70;;;;;;;12.37;80.13;101600.66;2055480;28;20047;-70
2022/09/02 03:23:03;;;;;;;0.40;0.40;;;;;;;12.33;80.10;101594.19;2048881;28;20039;-70
2022/09/02 03:24:11;;;;;;;1.30;0.43;;;;;;;12.31;80.12;101601.72;2048518;28;20462;-70
2022/09/02 03:25:21;;;;;;;0.98;0.60;;;;;;;12.31;79.97;101601.72;2050083;28;20245;-70
2022/09/02 03:26:27;;;;;;;2.88;0.50;;;;;;;12.29;79.87;101605.50;2072435;28;20054;-70
2022/09/02 03:27:33;;;;;;;1.52;0.55;;;;;;;12.28;79.77;101592.28;2078041;28;20420;-70
2022/09/02 03:28:38;;;;;;;0.82;0.50;;;;;;;12.31;79.83;101590.94;2056025;28;20422;-70
2022/09/02 03:29:45;;;;;;;0.65;0.60;;;;;;;12.29;79.88;101600.13;2056392;28;20086;-69
2022/09/02 03:30:49;;;;;;;0.95;0.60;;;;;;;12.29;79.63;101602.81;2055600;28;20648;-69
2022/09/02 03:31:56;;;;;;;0.63;0.40;;;;;;;12.28;79.58;101603.06;2048396;28;20039;-70
2022/09/02 03:33:01;;;;;;;1.45;0.60;;;;;;;12.26;79.89;101599.81;2064397;28;20504;-69
2022/09/02 03:34:08;;;;;;;0.80;0.57;;;;;;;12.27;79.91;101602.25;2056286;28;20062;-69
2022/09/02 03:35:14;;;;;;;1.90;0.63;;;;;;;12.26;79.75;101608.72;2048098;28;20054;-69
2022/09/02 03:36:31;;;;;;;0.90;0.60;;;;;;;12.27;79.67;101612.22;2049094;28;20055;-69
2022/09/02 03:37:37;;;;;;;1.77;0.60;;;;;;;12.25;79.63;101612.47;2064319;28;20053;-69
2022/09/02 03:38:41;;;;;;;3.15;0.60;;;;;;;12.22;79.46;101617.59;2063156;28;20405;-69
2022/09/02 03:39:44;;;;;;;0.50;0.47;;;;;;;12.23;79.71;101617.34;2072248;28;20496;-69
2022/09/02 03:40:49;;;;;;;2.13;0.60;;;;;;;12.21;79.59;101614.09;2087746;28;20799;-69
2022/09/02 03:41:53;;;;;;;0.60;0.50;;;;;;;12.23;79.79;101614.66;2055581;28;20069;-69
2022/09/02 03:42:56;;;;;;;3.65;0.60;;;;;;;12.23;79.75;101620.03;2072454;28;20481;-69
2022/09/02 03:44:04;;;;;;;1.00;0.50;;;;;;;12.24;79.76;101618.16;2071702;28;20374;-69
2022/09/02 03:45:11;;;;;;;1.67;0.50;;;;;;;12.23;79.62;101617.34;2064471;28;20430;-70
2022/09/02 03:46:18;;;;;;;0.95;0.57;;;;;;;12.24;79.51;101616.25;2065303;28;20062;-69
2022/09/02 03:47:27;;;;;;;0.98;0.50;;;;;;;12.26;79.34;101621.38;2074112;28;20062;-69
2022/09/02 03:48:29;;;;;;;1.27;0.68;;;;;;;12.27;79.58;101612.22;2056223;28;20078;-70
2022/09/02 03:49:32;;;;;;;2.00;1.02;;;;;;;12.26;79.48;101616.81;2057539;28;20042;-70
2022/09/02 03:50:39;;;;;;;1.48;0.60;;;;;;;12.26;79.67;101616.00;2064513;28;20556;-70
2022/09/02 03:51:58;;;;;;;1.63;0.70;;;;;;;12.26;79.80;101618.69;2046980;28;20036;-70
2022/09/02 03:53:03;;;;;;;0.52;0.50;;;;;;;12.25;80.00;101612.47;2061123;28;20620;-70
2022/09/02 03:54:10;;;;;;;1.85;0.50;;;;;;;12.20;80.14;101620.56;2061429;28;20045;-70
2022/09/02 03:55:18;;;;;;;0.60;0.60;;;;;;;12.23;80.38;101620.03;2066792;28;20103;-69
2022/09/02 03:56:21;;;;;;;1.23;0.77;;;;;;;12.22;80.53;101618.41;2056562;28;20663;-69
2022/09/02 03:57:25;;;;;;;0.70;0.40;;;;;;;12.20;80.40;101620.56;2050608;28;20047;-71
2022/09/02 03:58:32;;;;;;;0.50;0.40;;;;;;;12.20;80.78;101620.56;2072873;28;20046;-69
2022/09/02 03:59:39;;;;;;;0.57;0.40;;;;;;;12.25;80.43;101619.75;2066406;28;20045;-73
2022/09/02 04:00:49;;;;;;;1.75;0.75;;;;;;;12.28;80.36;101619.25;2074031;28;20041;-73
2022/09/02 04:01:53;;;;;;;0.93;0.40;;;;;;;12.29;80.32;101627.09;2066066;28;20039;-74
2022/09/02 04:02:55;;;;;;;0.70;0.45;;;;;;;12.31;80.23;101628.69;2073738;28;20093;-73
2022/09/02 04:04:03;;;;;;;1.83;0.60;;;;;;;12.30;80.20;101627.88;2065850;28;20524;-73
2022/09/02 04:05:08;;;;;;;0.68;0.40;;;;;;;12.30;80.28;101627.88;2073917;28;20532;-73
2022/09/02 04:06:15;;;;;;;1.73;0.57;;;;;;;12.31;80.30;101623.31;2072061;28;20053;-73
2022/09/02 04:07:22;;;;;;;0.93;0.60;;;;;;;12.29;80.21;101621.69;2077594;28;20045;-74
2022/09/02 04:08:24;;;;;;;0.73;0.40;;;;;;;12.29;80.06;101627.09;2089327;28;20396;-74
2022/09/02 04:09:31;;;;;;;1.90;0.50;;;;;;;12.27;80.05;101628.41;2066036;28;20471;-75
2022/09/02 04:10:36;;;;;;;1.92;0.60;;;;;;;12.28;80.07;101628.13;2066210;28;20054;-74
2022/09/02 04:11:44;;;;;;;0.98;0.50;;;;;;;12.29;80.09;101626.25;2065325;28;20397;-74
2022/09/02 04:12:50;;;;;;;4.10;0.55;;;;;;;12.29;80.06;101624.38;2066437;28;20054;-74
2022/09/02 04:13:54;;;;;;;1.25;0.70;;;;;;;12.31;79.93;101628.69;2057582;28;20039;-73
2022/09/02 04:15:04;;;;;;;0.90;0.70;;;;;;;12.32;79.92;101625.72;2075476;28;20415;-73
2022/09/02 04:16:12;;;;;;;1.70;0.80;;;;;;;12.31;79.62;101629.50;2064460;28;20049;-73
2022/09/02 04:17:14;;;;;;;5.28;0.77;;;;;;;12.35;79.69;101635.97;2059062;28;20047;-73
2022/09/02 04:18:25;;;;;;;1.98;0.77;;;;;;;12.36;79.55;101632.22;2073806;28;20034;-73
2022/09/02 04:19:28;;;;;;;1.48;0.73;;;;;;;12.37;79.49;101624.94;2073691;28;20106;-73
2022/09/02 04:20:33;;;;;;;2.78;0.90;;;;;;;12.42;79.50;101625.78;2065276;28;20038;-73
2022/09/02 04:21:38;;;;;;;1.70;0.70;;;;;;;12.44;79.41;101629.00;2056527;28;20034;-73
2022/09/02 04:22:48;;;;;;;1.15;0.65;;;;;;;12.45;79.30;101629.81;2059383;28;20487;-74
2022/09/02 04:23:55;;;;;;;1.50;0.95;;;;;;;12.46;79.20;101626.88;2064808;28;20054;-73
2022/09/02 04:24:57;;;;;;;1.15;0.60;;;;;;;12.47;79.25;101630.38;2073159;28;20041;-73
2022/09/02 04:26:08;;;;;;;1.48;0.57;;;;;;;12.48;79.09;101629.28;2073505;28;20042;-73
2022/09/02 04:27:13;;;;;;;4.55;0.65;;;;;;;12.49;79.11;101626.34;2065566;28;20049;-74
2022/09/02 04:28:21;;;;;;;1.02;0.55;;;;;;;12.51;79.14;101626.06;2066462;28;20117;-74
2022/09/02 04:29:27;;;;;;;4.68;0.80;;;;;;;12.53;78.86;101632.00;2057716;28;20054;-73
2022/09/02 04:30:31;;;;;;;0.55;0.50;;;;;;;12.55;78.87;101624.47;2058545;28;20039;-73
2022/09/02 04:31:37;;;;;;;1.27;0.40;;;;;;;12.56;78.90;101623.38;2064851;28;20038;-73
2022/09/02 04:32:42;;;;;;;0.68;0.57;;;;;;;12.58;78.83;101623.94;2065079;28;20041;-74
2022/09/02 04:33:50;;;;;;;2.70;0.55;;;;;;;12.59;78.97;101625.56;2057166;28;20043;-72
2022/09/02 04:34:54;;;;;;;0.90;0.50;;;;;;;12.61;78.81;101628.81;2050021;28;20069;-73
2022/09/02 04:36:04;;;;;;;0.65;0.50;;;;;;;12.64;78.89;101630.13;2059167;28;20042;-73
2022/09/02 04:37:18;;;;;;;0.88;0.60;;;;;;;12.66;78.73;101634.19;2072333;28;20097;-72
2022/09/02 04:38:22;;;;;;;1.58;0.60;;;;;;;12.69;78.72;101636.38;2081524;28;20041;-74
2022/09/02 04:39:26;;;;;;;4.60;0.60;;;;;;;12.72;78.62;101633.13;2072337;28;20053;-74
2022/09/02 04:40:30;;;;;;;1.75;0.60;;;;;;;12.73;78.63;101637.44;2081340;28;20113;-73
2022/09/02 04:41:37;;;;;;;3.08;0.77;;;;;;;12.78;78.55;101625.88;2071853;28;20049;-73
2022/09/02 04:42:46;;;;;;;2.47;0.63;;;;;;;12.92;78.07;101634.25;2055538;28;20037;-77
2022/09/02 04:43:49;;;;;;;2.03;0.60;;;;;;;13.01;77.99;101632.66;2066445;28;20037;-76
2022/09/02 04:44:53;;;;;;;0.95;0.63;;;;;;;12.98;78.24;101627.78;2072344;28;20044;-76
2022/09/02 04:45:56;;;;;;;1.63;0.60;;;;;;;12.95;78.05;101628.31;2065335;28;20410;-78
2022/09/02 04:47:05;;;;;;;2.38;0.77;;;;;;;12.93;78.16;101635.88;2079114;28;20501;-75
2022/09/02 04:48:08;;;;;;;1.50;0.98;;;;;;;12.91;78.21;101638.84;2055140;28;20047;-73
2022/09/02 04:49:13;;;;;;;1.85;0.68;;;;;;;12.92;78.15;101639.66;2064346;28;20418;-74
2022/09/02 04:50:20;;;;;;;2.72;0.85;;;;;;;12.92;78.15;101647.75;2077685;28;20061;-73
2022/09/02 04:51:33;;;;;;;1.20;0.80;;;;;;;12.92;78.28;101642.34;2074788;28;20057;-73
2022/09/02 04:52:41;;;;;;;1.13;0.50;;;;;;;12.93;78.34;101641.28;2077833;28;20045;-73
2022/09/02 04:53:52;;;;;;;2.25;0.85;;;;;;;12.93;78.39;101646.69;2056073;28;20038;-74
2022/09/02 04:54:54;;;;;;;0.80;0.50;;;;;;;12.93;78.21;101647.50;2065852;28;20038;-75
2022/09/02 04:55:57;;;;;;;1.13;0.70;;;;;;;12.93;78.01;101639.41;2063083;28;20073;-74
2022/09/02 04:57:01;;;;;;;4.57;1.00;;;;;;;12.95;77.92;101644.50;2063278;28;20061;-73
2022/09/02 04:58:07;;;;;;;3.42;0.60;;;;;;;12.95;77.85;101636.41;2055618;28;20053;-74
2022/09/02 04:59:09;;;;;;;2.03;0.77;;;;;;;12.96;77.70;101640.75;2063208;28;20089;-74
2022/09/02 05:00:18;;;;;;;3.97;0.80;;;;;;;12.97;77.77;101640.47;2055569;28;20434;-72
2022/09/02 05:01:31;;;;;;;1.73;0.60;;;;;;;12.97;77.40;101637.78;2073821;28;20046;-72
2022/09/02 05:02:37;;;;;;;2.13;0.43;;;;;;;12.99;77.51;101632.94;2069183;28;20693;-72
2022/09/02 05:03:43;;;;;;;1.63;0.60;;;;;;;13.03;77.39;101633.19;2065436;28;20608;-72
2022/09/02 05:04:50;;;;;;;1.42;0.82;;;;;;;13.05;77.38;101632.91;2072945;28;20429;-72
2022/09/02 05:06:06;;;;;;;0.95;0.50;;;;;;;13.06;77.19;101640.75;2063544;28;20417;-72
2022/09/02 05:07:10;;;;;;;1.55;0.60;;;;;;;13.09;77.15;101636.72;2057965;28;20042;-72
2022/09/02 05:08:22;;;;;;;2.50;0.70;;;;;;;13.09;76.69;101634.81;2078568;28;20049;-72
2022/09/02 05:09:26;;;;;;;2.05;0.60;;;;;;;13.11;76.50;101637.25;2067247;28;20426;-73